Bo Ballaja, Puerto Rico
Current Conditions -  °F | °C
As of 2:50 AM on Monday 22 Dec 2014 (Local Time) from TJBQ Reporting Station
Clear Clear  
Wind Chill: 70°   Ceiling: Unl
Heat Index: 70°   Visibility: 10mi
Dew Point: 64°   Wind: 6mph
Humidity: 83%   Direction: 120°ESE
Pressure: 30.05"   Gusts: NA
Location:  18.0849°N, 67.1633°W
Report Text: TJBQ 220650Z 12005KT 10SM SKC 21/18 A3005 RMK RWY 8 ATIS P
Loading
Personal Weather Stations






























Interactive Weather Map New forecast layout! Learn more

10-Day Weather Forecast

Advertisements
Track Severe Weather on mobile